Time;durP1;ratioP1;P1;durP2;ratioP2;P2;SDS_P1;SDS_P2;PMS_P1;PMS_P2;Temp;Humidity;BMP_temperature;BMP_pressure;BME280_temperature;BME280_humidity;BME280_pressure;Samples;Min_cycle;Max_cycle;Signal;HPM_P1;HPM_P2
2022/10/11 00:01:16;;;;;;;;;;;17.60;99.90;;;;;;5091700;28;20354;-68
2022/10/11 00:03:43;;;;;;;;;;;17.70;99.90;;;;;;5092026;28;19991;-72
2022/10/11 00:06:10;;;;;;;;;;;17.70;99.90;;;;;;5091875;28;20363;-71
2022/10/11 00:08:37;;;;;;;;;;;17.70;99.90;;;;;;5091984;28;19924;-74
2022/10/11 00:11:05;;;;;;;;;;;17.70;99.90;;;;;;5091736;28;20328;-72
2022/10/11 00:13:32;;;;;;;;;;;17.70;99.90;;;;;;5124737;28;19916;-73
2022/10/11 00:15:58;;;;;;;;;;;17.70;99.90;;;;;;5092488;28;19908;-74
2022/10/11 00:18:25;;;;;;;;;;;17.70;99.90;;;;;;5092258;28;19937;-73
2022/10/11 00:21:00;;;;;;;;;;;17.60;99.90;;;;;;5091744;28;19913;-75
2022/10/11 00:23:26;;;;;;;;;;;17.60;99.90;;;;;;5092011;28;19908;-72
2022/10/11 00:25:57;;;;;;;;;;;17.50;99.90;;;;;;5092304;28;19919;-74
2022/10/11 00:28:24;;;;;;;;;;;17.40;99.90;;;;;;5092168;28;19912;-75
2022/10/11 00:30:53;;;;;;;;;;;17.30;99.90;;;;;;5091472;28;20429;-73
2022/10/11 00:33:20;;;;;;;;;;;17.20;99.90;;;;;;5091991;28;20449;-72
2022/10/11 00:35:47;;;;;;;;;;;17.20;99.90;;;;;;5093365;28;19951;-72
2022/10/11 00:38:14;;;;;;;;;;;17.20;99.90;;;;;;5094577;28;19912;-70
2022/10/11 00:40:41;;;;;;;;;;;17.30;99.90;;;;;;5092180;28;19989;-74
2022/10/11 00:43:21;;;;;;;;;;;17.40;99.90;;;;;;5091747;28;19908;-75
2022/10/11 00:46:11;;;;;;;;;;;17.50;99.90;;;;;;5091830;28;19909;-73
2022/10/11 00:48:40;;;;;;;;;;;17.60;99.90;;;;;;5088327;28;20005;-74
2022/10/11 00:51:13;;;;;;;;;;;17.70;99.90;;;;;;5092018;28;19908;-74
2022/10/11 00:53:40;;;;;;;;;;;17.70;99.90;;;;;;5091888;28;20304;-71
2022/10/11 00:56:09;;;;;;;;;;;17.80;99.90;;;;;;5093970;28;20370;-75
2022/10/11 00:58:37;;;;;;;;;;;17.90;99.90;;;;;;5096095;28;19955;-75
2022/10/11 01:01:04;;;;;;;;;;;17.90;99.90;;;;;;5108411;28;19915;-68
2022/10/11 01:03:32;;;;;;;;;;;17.80;99.90;;;;;;5106999;28;19912;-73
2022/10/11 01:05:59;;;;;;;;;;;17.90;99.90;;;;;;5095542;28;20483;-74
2022/10/11 01:08:26;;;;;;;;;;;17.90;99.90;;;;;;5095476;28;19963;-69
2022/10/11 01:10:55;;;;;;;;;;;17.80;99.90;;;;;;5095408;28;20374;-70
2022/10/11 01:13:33;;;;;;;;;;;18.00;99.90;;;;;;5095001;28;20698;-69
2022/10/11 01:16:14;;;;;;;;;;;18.20;99.90;;;;;;5095506;28;20300;-73
2022/10/11 01:18:59;;;;;;;;;;;18.20;99.90;;;;;;5094899;28;19912;-70
2022/10/11 01:21:35;;;;;;;;;;;18.10;99.90;;;;;;5095760;28;20277;-73
2022/10/11 01:24:08;;;;;;;;;;;18.20;99.90;;;;;;5096185;28;19916;-70
2022/10/11 01:26:35;;;;;;;;;;;18.30;99.90;;;;;;5095469;28;19908;-74
2022/10/11 01:29:20;;;;;;;;;;;18.40;99.90;;;;;;5094194;28;19947;-72
2022/10/11 01:31:50;;;;;;;;;;;18.30;99.90;;;;;;5095159;28;19919;-69
2022/10/11 01:34:17;;;;;;;;;;;18.00;99.90;;;;;;5095021;28;19915;-69
2022/10/11 01:36:46;;;;;;;;;;;17.90;99.90;;;;;;5094864;28;19957;-68
2022/10/11 01:39:19;;;;;;;;;;;17.80;99.90;;;;;;5094208;28;19912;-68
2022/10/11 01:41:48;;;;;;;;;;;17.70;99.90;;;;;;5094925;28;19908;-71
2022/10/11 01:44:15;;;;;;;;;;;17.70;99.90;;;;;;5094858;28;19915;-69
2022/10/11 01:46:42;;;;;;;;;;;17.70;99.90;;;;;;5094701;28;19912;-71
2022/10/11 01:49:09;;;;;;;;;;;17.70;99.90;;;;;;5094171;28;19916;-69
2022/10/11 01:51:40;;;;;;;;;;;17.80;99.90;;;;;;5094677;28;19909;-70
2022/10/11 01:54:12;;;;;;;;;;;17.80;99.90;;;;;;5094627;28;19965;-69
2022/10/11 01:57:01;;;;;;;;;;;17.80;99.90;;;;;;5094817;28;20350;-74
2022/10/11 01:59:34;;;;;;;;;;;18.00;99.90;;;;;;5094073;28;19913;-70
2022/10/11 02:02:13;;;;;;;;;;;18.00;99.90;;;;;;5094536;28;19919;-73
2022/10/11 02:04:44;;;;;;;;;;;18.10;99.90;;;;;;5094480;28;19973;-70
2022/10/11 02:07:11;;;;;;;;;;;18.00;99.90;;;;;;5094098;28;19961;-71
2022/10/11 02:09:37;;;;;;;;;;;18.10;99.90;;;;;;5093645;28;19920;-68
2022/10/11 02:12:06;;;;;;;;;;;18.00;99.90;;;;;;5094417;28;19908;-70
2022/10/11 02:14:43;;;;;;;;;;;18.00;99.90;;;;;;5094029;28;19912;-72
2022/10/11 02:17:13;;;;;;;;;;;18.10;99.90;;;;;;5094070;28;20397;-68
2022/10/11 02:19:41;;;;;;;;;;;18.20;99.90;;;;;;5093678;28;19912;-69
2022/10/11 02:22:11;;;;;;;;;;;18.20;99.90;;;;;;5094077;28;19915;-70
2022/10/11 02:24:40;;;;;;;;;;;18.00;99.90;;;;;;5094017;28;19908;-67
2022/10/11 02:27:08;;;;;;;;;;;17.90;99.90;;;;;;5093790;28;20251;-68
2022/10/11 02:29:37;;;;;;;;;;;17.80;99.90;;;;;;5093312;28;20026;-69
2022/10/11 02:32:04;;;;;;;;;;;17.80;99.90;;;;;;5094150;28;19908;-67
2022/10/11 02:34:45;;;;;;;;;;;17.80;99.90;;;;;;5093989;28;19908;-67
2022/10/11 02:37:11;;;;;;;;;;;17.80;99.90;;;;;;5094803;28;19919;-70
2022/10/11 02:40:04;;;;;;;;;;;17.80;99.90;;;;;;5107242;28;19912;-67
2022/10/11 02:42:36;;;;;;;;;;;17.70;99.90;;;;;;5092831;28;19912;-70
2022/10/11 02:45:06;;;;;;;;;;;17.70;99.90;;;;;;5093320;28;19959;-73
2022/10/11 02:47:33;;;;;;;;;;;17.80;99.90;;;;;;5093708;28;19923;-69
2022/10/11 02:49:59;;;;;;;;;;;17.80;99.90;;;;;;5093781;28;19923;-72
2022/10/11 02:52:26;;;;;;;;;;;17.90;99.90;;;;;;5093811;28;19990;-70
2022/10/11 02:54:53;;;;;;;;;;;18.00;99.90;;;;;;5093561;28;19991;-72
2022/10/11 02:57:20;;;;;;;;;;;18.20;99.90;;;;;;5093294;28;20370;-70
2022/10/11 02:59:48;;;;;;;;;;;18.30;99.90;;;;;;5092835;28;19912;-69
2022/10/11 03:02:15;;;;;;;;;;;18.20;99.90;;;;;;5098653;28;19922;-71
2022/10/11 03:04:41;;;;;;;;;;;18.40;99.90;;;;;;5094387;28;19963;-69
2022/10/11 03:07:08;;;;;;;;;;;18.30;99.90;;;;;;5097088;28;20366;-72
2022/10/11 03:09:34;;;;;;;;;;;18.40;99.90;;;;;;5113590;28;20366;-71
2022/10/11 03:12:01;;;;;;;;;;;18.40;99.90;;;;;;5112059;28;19912;-70
2022/10/11 03:14:28;;;;;;;;;;;18.40;99.90;;;;;;5113334;28;19916;-70
2022/10/11 03:16:54;;;;;;;;;;;18.30;99.90;;;;;;5113641;28;19908;-69
2022/10/11 03:19:21;;;;;;;;;;;18.20;99.90;;;;;;5108033;28;20248;-68
2022/10/11 03:21:48;;;;;;;;;;;18.00;99.90;;;;;;5092731;28;19966;-68
2022/10/11 03:24:14;;;;;;;;;;;18.00;99.90;;;;;;5092901;28;19999;-70
2022/10/11 03:26:41;;;;;;;;;;;18.00;99.90;;;;;;5093150;28;19940;-69
2022/10/11 03:29:08;;;;;;;;;;;17.90;99.90;;;;;;5092572;28;19916;-69
2022/10/11 03:31:34;;;;;;;;;;;17.90;99.90;;;;;;5092438;28;19951;-68
2022/10/11 03:34:01;;;;;;;;;;;17.80;99.90;;;;;;5092825;28;19909;-69
2022/10/11 03:36:28;;;;;;;;;;;17.80;99.90;;;;;;5092576;28;20291;-70
2022/10/11 03:38:54;;;;;;;;;;;17.90;99.90;;;;;;5092809;28;19931;-68
2022/10/11 03:41:21;;;;;;;;;;;17.90;99.90;;;;;;5092143;28;19912;-68
2022/10/11 03:43:48;;;;;;;;;;;18.00;99.90;;;;;;5092362;28;19912;-69
2022/10/11 03:46:16;;;;;;;;;;;18.20;99.90;;;;;;5092477;28;20278;-70
2022/10/11 03:48:43;;;;;;;;;;;18.40;99.90;;;;;;5092199;28;19919;-70
2022/10/11 03:51:11;;;;;;;;;;;18.50;99.90;;;;;;5091854;28;19953;-70
2022/10/11 03:53:39;;;;;;;;;;;18.60;99.90;;;;;;5092333;28;19912;-69
2022/10/11 03:56:05;;;;;;;;;;;18.50;99.90;;;;;;5092485;28;19961;-70
2022/10/11 03:58:32;;;;;;;;;;;18.50;99.90;;;;;;5092138;28;19985;-68
2022/10/11 04:00:59;;;;;;;;;;;18.30;99.90;;;;;;5092122;28;19919;-68
2022/10/11 04:03:25;;;;;;;;;;;18.40;99.90;;;;;;5092887;28;19914;-68
2022/10/11 04:05:52;;;;;;;;;;;18.50;99.90;;;;;;5094144;28;19919;-68
2022/10/11 04:08:19;;;;;;;;;;;18.40;99.90;;;;;;5092809;28;19923;-69
2022/10/11 04:10:51;;;;;;;;;;;18.40;99.90;;;;;;5092064;28;19915;-67
2022/10/11 04:13:18;;;;;;;;;;;18.30;99.90;;;;;;5092330;28;19947;-68
2022/10/11 04:15:44;;;;;;;;;;;18.20;99.90;;;;;;5098001;28;19908;-68
2022/10/11 04:18:11;;;;;;;;;;;18.20;99.90;;;;;;5095662;28;19951;-67
2022/10/11 04:20:38;;;;;;;;;;;18.20;99.90;;;;;;5092188;28;19995;-71
2022/10/11 04:23:04;;;;;;;;;;;18.20;99.90;;;;;;5091889;28;19912;-68
2022/10/11 04:25:31;;;;;;;;;;;18.20;99.90;;;;;;5092265;28;19912;-68
2022/10/11 04:27:58;;;;;;;;;;;18.10;99.90;;;;;;5092100;28;19915;-68
2022/10/11 04:30:25;;;;;;;;;;;18.10;99.90;;;;;;5093319;28;20378;-69
2022/10/11 04:32:51;;;;;;;;;;;18.30;99.90;;;;;;5096066;28;20408;-69
2022/10/11 04:35:18;;;;;;;;;;;18.30;99.90;;;;;;5096002;28;19951;-67
2022/10/11 04:37:46;;;;;;;;;;;18.20;99.90;;;;;;5095975;28;19947;-68
2022/10/11 04:40:13;;;;;;;;;;;18.30;99.90;;;;;;5096000;28;20371;-68
2022/10/11 04:42:39;;;;;;;;;;;18.10;99.90;;;;;;5095397;28;19912;-68
2022/10/11 04:45:06;;;;;;;;;;;18.00;99.90;;;;;;5095508;28;19912;-67
2022/10/11 04:47:33;;;;;;;;;;;18.00;99.90;;;;;;5095877;28;19944;-67
2022/10/11 04:49:59;;;;;;;;;;;18.00;99.90;;;;;;5095961;28;20380;-68
2022/10/11 04:52:26;;;;;;;;;;;18.00;99.90;;;;;;5095314;28;19912;-68
2022/10/11 04:54:53;;;;;;;;;;;17.90;99.90;;;;;;5095637;28;19908;-67
2022/10/11 04:57:19;;;;;;;;;;;17.90;99.90;;;;;;5095080;28;20350;-69
2022/10/11 04:59:46;;;;;;;;;;;18.00;99.90;;;;;;5095599;28;19912;-68
2022/10/11 05:02:13;;;;;;;;;;;17.90;99.90;;;;;;5095113;28;19916;-68
2022/10/11 05:04:41;;;;;;;;;;;17.80;99.90;;;;;;5095639;28;20011;-71
2022/10/11 05:07:08;;;;;;;;;;;17.80;99.90;;;;;;5095500;28;20282;-73
2022/10/11 05:09:34;;;;;;;;;;;17.80;99.90;;;;;;5095207;28;20030;-74
2022/10/11 05:12:01;;;;;;;;;;;17.80;99.90;;;;;;5095241;28;20022;-68
2022/10/11 05:14:28;;;;;;;;;;;17.80;99.90;;;;;;5094990;28;19908;-70
2022/10/11 05:16:55;;;;;;;;;;;17.70;99.90;;;;;;5127876;27;20421;-71
2022/10/11 05:19:22;;;;;;;;;;;17.70;99.90;;;;;;5095135;28;20686;-68
2022/10/11 05:21:48;;;;;;;;;;;17.70;99.90;;;;;;5094848;28;20327;-69
2022/10/11 05:24:15;;;;;;;;;;;17.70;99.90;;;;;;5095171;28;20420;-69
2022/10/11 05:26:41;;;;;;;;;;;17.70;99.90;;;;;;5093736;28;19915;-69
2022/10/11 05:29:08;;;;;;;;;;;17.60;99.90;;;;;;5094891;28;19927;-69
2022/10/11 05:31:35;;;;;;;;;;;17.70;99.90;;;;;;5094544;28;19909;-71
2022/10/11 05:34:01;;;;;;;;;;;17.70;99.90;;;;;;5095075;28;19962;-67
2022/10/11 05:36:28;;;;;;;;;;;17.70;99.90;;;;;;5094713;28;19912;-70
2022/10/11 05:38:55;;;;;;;;;;;17.60;99.90;;;;;;5094947;28;19912;-73
2022/10/11 05:41:22;;;;;;;;;;;17.60;99.90;;;;;;5093843;28;19912;-69
2022/10/11 05:43:48;;;;;;;;;;;17.70;99.90;;;;;;5094749;28;19918;-68
2022/10/11 05:46:15;;;;;;;;;;;17.70;99.90;;;;;;5095356;28;20369;-71
2022/10/11 05:48:42;;;;;;;;;;;17.70;99.90;;;;;;5094910;28;19912;-70
2022/10/11 05:51:09;;;;;;;;;;;17.70;99.90;;;;;;5093237;28;20314;-69
2022/10/11 05:53:36;;;;;;;;;;;17.80;99.90;;;;;;5102318;28;19980;-67
2022/10/11 05:56:05;;;;;;;;;;;17.80;99.90;;;;;;5095485;28;19958;-68
2022/10/11 05:58:31;;;;;;;;;;;17.70;99.90;;;;;;5092628;28;19912;-73
2022/10/11 06:00:58;;;;;;;;;;;17.60;99.90;;;;;;5092553;28;19908;-73
2022/10/11 06:03:25;;;;;;;;;;;17.50;99.90;;;;;;5092123;28;19912;-74
2022/10/11 06:05:51;;;;;;;;;;;17.50;99.90;;;;;;5092092;28;20294;-72
2022/10/11 06:08:18;;;;;;;;;;;17.50;99.90;;;;;;5092163;28;19908;-73
2022/10/11 06:10:45;;;;;;;;;;;17.50;99.90;;;;;;5092188;28;20095;-69
2022/10/11 06:13:11;;;;;;;;;;;17.40;99.90;;;;;;5091708;28;19909;-69
2022/10/11 06:15:39;;;;;;;;;;;17.40;99.90;;;;;;5092560;28;19908;-72
2022/10/11 06:18:08;;;;;;;;;;;17.40;99.90;;;;;;5092121;28;19915;-69
2022/10/11 06:20:36;;;;;;;;;;;17.30;99.90;;;;;;5092259;28;19919;-68
2022/10/11 06:23:02;;;;;;;;;;;17.30;99.90;;;;;;5092523;28;19912;-67
2022/10/11 06:25:29;;;;;;;;;;;17.40;99.90;;;;;;5091943;28;19919;-68
2022/10/11 06:27:56;;;;;;;;;;;17.30;99.90;;;;;;5091912;28;19918;-67
2022/10/11 06:30:23;;;;;;;;;;;17.30;99.90;;;;;;5091106;28;19964;-71
2022/10/11 06:32:49;;;;;;;;;;;17.20;99.90;;;;;;5091652;28;19958;-73
2022/10/11 06:35:17;;;;;;;;;;;17.20;99.90;;;;;;5091305;28;20603;-71
2022/10/11 06:37:44;;;;;;;;;;;17.20;99.90;;;;;;5091715;28;19912;-71
2022/10/11 06:40:11;;;;;;;;;;;17.20;99.90;;;;;;5091591;28;19954;-68
2022/10/11 06:42:37;;;;;;;;;;;17.20;99.90;;;;;;5091179;28;19912;-74
2022/10/11 06:45:04;;;;;;;;;;;17.10;99.90;;;;;;5091138;28;19998;-68
2022/10/11 06:47:31;;;;;;;;;;;17.10;99.90;;;;;;5091853;28;19920;-69
2022/10/11 06:49:58;;;;;;;;;;;17.10;99.90;;;;;;5091326;28;19971;-71
2022/10/11 06:52:27;;;;;;;;;;;17.10;99.90;;;;;;5090771;28;19908;-68
2022/10/11 06:54:54;;;;;;;;;;;17.00;99.90;;;;;;5090769;28;20592;-71
2022/10/11 06:57:21;;;;;;;;;;;17.00;99.90;;;;;;5090376;28;19935;-70
2022/10/11 06:59:47;;;;;;;;;;;17.00;99.90;;;;;;5091152;28;20362;-68
2022/10/11 07:02:14;;;;;;;;;;;16.90;99.90;;;;;;5090890;28;20011;-70
2022/10/11 07:04:41;;;;;;;;;;;16.90;99.90;;;;;;5091613;28;19912;-68
2022/10/11 07:07:07;;;;;;;;;;;16.90;99.90;;;;;;5091138;28;19998;-66
2022/10/11 07:09:34;;;;;;;;;;;16.80;99.90;;;;;;5090599;28;20359;-71
2022/10/11 07:12:01;;;;;;;;;;;16.80;99.90;;;;;;5090791;28;19939;-73
2022/10/11 07:14:27;;;;;;;;;;;16.80;99.90;;;;;;5090968;28;19909;-68
2022/10/11 07:16:54;;;;;;;;;;;16.70;99.90;;;;;;5090968;28;19922;-73
2022/10/11 07:19:21;;;;;;;;;;;16.70;99.90;;;;;;5090704;28;20376;-69
2022/10/11 07:21:48;;;;;;;;;;;16.70;99.90;;;;;;5090688;28;20002;-67
2022/10/11 07:24:14;;;;;;;;;;;16.70;99.90;;;;;;5084988;28;19966;-68
2022/10/11 07:26:41;;;;;;;;;;;16.70;99.90;;;;;;5084805;28;19957;-70
2022/10/11 07:29:08;;;;;;;;;;;16.70;99.90;;;;;;5087550;28;19961;-68
2022/10/11 07:31:36;;;;;;;;;;;16.60;99.90;;;;;;5093585;28;19925;-68
2022/10/11 07:34:03;;;;;;;;;;;16.60;99.90;;;;;;5085294;28;20002;-67
2022/10/11 07:36:30;;;;;;;;;;;16.60;99.90;;;;;;5083961;28;19912;-68
2022/10/11 07:38:57;;;;;;;;;;;16.50;99.90;;;;;;5116555;27;19945;-68
2022/10/11 07:41:23;;;;;;;;;;;16.50;99.90;;;;;;5083909;28;19919;-70
2022/10/11 07:43:50;;;;;;;;;;;16.40;99.90;;;;;;5084382;28;20294;-68
2022/10/11 07:46:17;;;;;;;;;;;16.50;99.90;;;;;;5084414;28;20216;-70
2022/10/11 07:48:44;;;;;;;;;;;16.50;99.90;;;;;;5084061;28;20032;-74
2022/10/11 07:51:15;;;;;;;;;;;16.40;99.90;;;;;;5083571;28;19917;-69
2022/10/11 07:53:42;;;;;;;;;;;16.40;99.90;;;;;;5084074;28;20504;-71
2022/10/11 07:56:11;;;;;;;;;;;16.40;99.90;;;;;;5083944;28;19984;-71
2022/10/11 07:58:38;;;;;;;;;;;16.30;99.90;;;;;;5084412;28;20294;-67
2022/10/11 08:01:05;;;;;;;;;;;16.30;99.90;;;;;;5083268;28;19923;-72
2022/10/11 08:03:31;;;;;;;;;;;16.20;99.90;;;;;;5083708;28;19912;-71
2022/10/11 08:05:59;;;;;;;;;;;16.20;99.90;;;;;;5083803;28;19983;-74
2022/10/11 08:08:26;;;;;;;;;;;16.20;99.90;;;;;;5083648;28;20647;-72
2022/10/11 08:10:53;;;;;;;;;;;16.20;99.90;;;;;;5083667;28;19975;-69
2022/10/11 08:13:20;;;;;;;;;;;16.20;99.90;;;;;;5083818;28;19919;-69
2022/10/11 08:15:46;;;;;;;;;;;16.10;99.90;;;;;;5084504;28;19915;-72
2022/10/11 08:18:13;;;;;;;;;;;16.10;99.90;;;;;;5085628;28;20266;-72
2022/10/11 08:20:40;;;;;;;;;;;16.10;99.90;;;;;;5084447;28;20445;-74
2022/10/11 08:23:08;;;;;;;;;;;16.10;99.90;;;;;;5083993;28;20422;-69
2022/10/11 08:25:38;;;;;;;;;;;16.10;99.90;;;;;;5084171;28;19943;-69
2022/10/11 08:28:06;;;;;;;;;;;16.10;99.90;;;;;;5083189;28;19981;-71
2022/10/11 08:30:33;;;;;;;;;;;16.00;99.90;;;;;;5083516;28;19927;-71
2022/10/11 08:33:00;;;;;;;;;;;16.00;99.90;;;;;;5084023;28;20316;-71
2022/10/11 08:35:26;;;;;;;;;;;16.00;99.90;;;;;;5083320;28;19966;-69
2022/10/11 08:37:53;;;;;;;;;;;16.00;99.90;;;;;;5083830;28;19919;-68
2022/10/11 08:40:21;;;;;;;;;;;15.90;99.90;;;;;;5083583;28;19919;-67
2022/10/11 08:42:51;;;;;;;;;;;15.90;99.90;;;;;;5083760;28;19912;-69
2022/10/11 08:45:25;;;;;;;;;;;15.90;99.90;;;;;;5084148;28;20030;-69
2022/10/11 08:47:57;;;;;;;;;;;15.90;99.90;;;;;;5088879;28;19947;-68
2022/10/11 08:50:23;;;;;;;;;;;15.90;99.90;;;;;;5091556;28;19987;-67
2022/10/11 08:52:53;;;;;;;;;;;15.90;99.90;;;;;;5090574;28;20668;-67
2022/10/11 08:55:31;;;;;;;;;;;15.80;99.90;;;;;;5091558;28;19908;-70
2022/10/11 08:57:58;;;;;;;;;;;15.80;99.90;;;;;;5071544;28;19926;-68
2022/10/11 09:00:27;;;;;;;;;;;15.80;99.90;;;;;;5071345;28;19913;-68
2022/10/11 09:03:11;;;;;;;;;;;15.80;99.90;;;;;;5071725;28;19909;-69
2022/10/11 09:05:57;;;;;;;;;;;15.80;99.90;;;;;;5076473;28;19912;-69
2022/10/11 09:08:31;;;;;;;;;;;15.80;99.90;;;;;;5073832;28;20354;-67
2022/10/11 09:10:59;;;;;;;;;;;15.80;99.90;;;;;;5071407;28;19920;-69
2022/10/11 09:13:40;;;;;;;;;;;15.80;99.90;;;;;;5071111;28;19997;-69
2022/10/11 09:16:13;;;;;;;;;;;15.80;99.90;;;;;;5071697;28;19908;-68
2022/10/11 09:18:41;;;;;;;;;;;15.70;99.90;;;;;;5075038;28;19935;-67
2022/10/11 09:21:11;;;;;;;;;;;15.70;99.90;;;;;;5070588;28;20717;-68
2022/10/11 09:23:56;;;;;;;;;;;15.70;99.90;;;;;;5066897;28;19916;-74
2022/10/11 09:26:30;;;;;;;;;;;15.70;99.90;;;;;;5066604;28;19920;-69
2022/10/11 09:29:14;;;;;;;;;;;15.70;99.90;;;;;;5066559;28;19977;-69
2022/10/11 09:31:45;;;;;;;;;;;15.60;99.90;;;;;;5066192;28;19970;-68
2022/10/11 09:34:13;;;;;;;;;;;15.70;99.90;;;;;;5066184;28;20003;-69
2022/10/11 09:36:58;;;;;;;;;;;15.60;99.90;;;;;;5066566;28;19913;-70
2022/10/11 09:39:43;;;;;;;;;;;15.70;99.90;;;;;;5066297;28;19939;-75
2022/10/11 09:42:10;;;;;;;;;;;15.70;99.90;;;;;;5065946;28;20345;-75
2022/10/11 09:44:39;;;;;;;;;;;15.70;99.90;;;;;;5066547;28;19951;-69
2022/10/11 09:47:06;;;;;;;;;;;15.70;99.90;;;;;;5065801;28;19943;-71
2022/10/11 09:49:45;;;;;;;;;;;15.60;99.90;;;;;;5066038;28;20019;-70
2022/10/11 09:52:16;;;;;;;;;;;15.60;99.90;;;;;;5065793;28;19925;-68
2022/10/11 09:55:09;;;;;;;;;;;15.60;99.90;;;;;;5066342;28;20027;-68
2022/10/11 09:57:39;;;;;;;;;;;15.60;99.90;;;;;;5083176;28;19916;-69
2022/10/11 10:00:11;;;;;;;;;;;15.60;99.90;;;;;;5085905;28;19966;-72
2022/10/11 10:02:39;;;;;;;;;;;15.60;99.90;;;;;;5086224;28;19961;-68
2022/10/11 10:05:06;;;;;;;;;;;15.60;99.90;;;;;;5085899;28;20022;-71
2022/10/11 10:07:33;;;;;;;;;;;15.60;99.90;;;;;;5086428;28;19916;-71
2022/10/11 10:10:20;;;;;;;;;;;15.50;99.90;;;;;;5083668;28;20015;-71
2022/10/11 10:12:53;;;;;;;;;;;15.50;99.90;;;;;;5086275;28;19916;-69
2022/10/11 10:15:21;;;;;;;;;;;15.50;99.90;;;;;;5086166;28;19975;-70
2022/10/11 10:17:49;;;;;;;;;;;15.50;99.90;;;;;;5086315;28;20015;-71
2022/10/11 10:20:28;;;;;;;;;;;15.40;99.90;;;;;;5085810;28;20426;-69
2022/10/11 10:22:55;;;;;;;;;;;15.40;99.90;;;;;;5085868;28;19912;-71
2022/10/11 10:25:31;;;;;;;;;;;15.30;99.90;;;;;;5085722;28;19916;-69
2022/10/11 10:27:59;;;;;;;;;;;15.30;99.90;;;;;;5085706;28;19912;-69
2022/10/11 10:30:27;;;;;;;;;;;15.20;99.90;;;;;;5118121;27;20686;-72
2022/10/11 10:32:56;;;;;;;;;;;15.30;99.90;;;;;;5085460;28;19920;-70
2022/10/11 10:35:23;;;;;;;;;;;15.30;99.90;;;;;;5085370;28;19912;-71
2022/10/11 10:37:59;;;;;;;;;;;15.30;99.90;;;;;;5085759;28;20374;-70
2022/10/11 10:40:35;;;;;;;;;;;15.30;99.90;;;;;;5085112;28;20447;-70
2022/10/11 10:43:02;;;;;;;;;;;15.30;99.90;;;;;;5127359;27;19912;-70
2022/10/11 10:45:38;;;;;;;;;;;15.30;99.90;;;;;;5088362;28;19922;-70
2022/10/11 10:48:17;;;;;;;;;;;15.30;99.90;;;;;;5085576;28;19926;-69
2022/10/11 10:50:52;;;;;;;;;;;15.30;99.90;;;;;;5084935;28;19939;-69
2022/10/11 10:53:28;;;;;;;;;;;15.20;99.90;;;;;;5084609;28;20375;-68
2022/10/11 10:56:10;;;;;;;;;;;15.30;99.90;;;;;;5085115;28;19919;-70
2022/10/11 10:58:39;;;;;;;;;;;15.30;99.90;;;;;;5084972;28;19912;-75
2022/10/11 11:01:15;;;;;;;;;;;15.30;99.90;;;;;;5084507;28;19920;-71
2022/10/11 11:03:48;;;;;;;;;;;15.30;99.90;;;;;;5084911;28;19999;-72
2022/10/11 11:06:33;;;;;;;;;;;15.30;99.90;;;;;;5085010;28;19946;-70
2022/10/11 11:09:20;;;;;;;;;;;15.30;99.90;;;;;;5084666;28;19924;-73
2022/10/11 11:11:47;;;;;;;;;;;15.30;99.90;;;;;;5080062;28;19916;-70
2022/10/11 11:14:13;;;;;;;;;;;15.30;99.90;;;;;;5084832;28;19912;-70
2022/10/11 11:16:44;;;;;;;;;;;15.30;99.90;;;;;;5084866;28;20293;-73
2022/10/11 11:19:29;;;;;;;;;;;15.30;99.90;;;;;;5084102;28;19916;-69
2022/10/11 11:22:19;;;;;;;;;;;15.30;99.90;;;;;;5084229;28;19920;-70
2022/10/11 11:25:15;;;;;;;;;;;15.20;99.90;;;;;;5081522;28;20521;-70
2022/10/11 11:27:47;;;;;;;;;;;15.20;99.90;;;;;;5079574;28;20701;-72
2022/10/11 11:30:43;;;;;;;;;;;15.20;99.90;;;;;;5084540;28;19954;-72
2022/10/11 11:33:20;;;;;;;;;;;15.20;99.90;;;;;;5078892;28;19976;-71
2022/10/11 11:35:51;;;;;;;;;;;15.20;99.90;;;;;;5086014;28;20321;-73
2022/10/11 11:38:24;;;;;;;;;;;15.20;99.90;;;;;;5086014;28;19912;-72
2022/10/11 11:41:10;;;;;;;;;;;15.20;99.90;;;;;;5084305;28;19912;-73
2022/10/11 11:44:00;;;;;;;;;;;15.20;99.90;;;;;;5084259;28;20053;-69
2022/10/11 11:46:33;;;;;;;;;;;15.20;99.90;;;;;;5080679;28;19981;-70
2022/10/11 11:49:03;;;;;;;;;;;15.20;99.90;;;;;;5084370;28;19920;-70
2022/10/11 11:51:29;;;;;;;;;;;15.20;99.90;;;;;;5084120;28;20699;-70
2022/10/11 11:54:04;;;;;;;;;;;15.20;99.90;;;;;;5084528;28;19919;-69
2022/10/11 11:56:51;;;;;;;;;;;15.20;99.90;;;;;;5083911;28;19955;-70
2022/10/11 11:59:18;;;;;;;;;;;15.20;99.90;;;;;;5083677;28;20433;-71
2022/10/11 12:02:07;;;;;;;;;;;15.20;99.90;;;;;;5089490;28;19919;-68
2022/10/11 12:04:35;;;;;;;;;;;15.20;99.90;;;;;;5081645;28;20007;-68
2022/10/11 12:07:05;;;;;;;;;;;15.20;99.90;;;;;;5092245;28;19912;-68
2022/10/11 12:09:33;;;;;;;;;;;15.20;99.90;;;;;;5091831;28;20099;-73
2022/10/11 12:12:00;;;;;;;;;;;15.20;99.90;;;;;;5091868;28;19908;-76
2022/10/11 12:14:37;;;;;;;;;;;15.20;99.90;;;;;;5092400;28;19919;-74
2022/10/11 12:17:29;;;;;;;;;;;15.10;99.90;;;;;;5092342;28;19908;-69
2022/10/11 12:20:20;;;;;;;;;;;15.10;99.90;;;;;;5100901;28;19912;-68
2022/10/11 12:22:51;;;;;;;;;;;15.10;99.90;;;;;;5093897;28;19914;-73
2022/10/11 12:25:18;;;;;;;;;;;15.00;99.90;;;;;;5092206;28;19912;-74
2022/10/11 12:27:46;;;;;;;;;;;15.00;99.90;;;;;;5092187;28;19915;-70
2022/10/11 12:30:31;;;;;;;;;;;15.00;99.90;;;;;;5091704;28;19923;-72
2022/10/11 12:33:16;;;;;;;;;;;14.90;99.90;;;;;;5092172;28;19919;-72
2022/10/11 12:35:54;;;;;;;;;;;14.90;99.90;;;;;;5092276;28;20382;-68
2022/10/11 12:38:28;;;;;;;;;;;14.90;99.90;;;;;;5091983;28;19954;-73
2022/10/11 12:40:59;;;;;;;;;;;14.90;99.90;;;;;;5091828;28;19909;-73
2022/10/11 12:43:30;;;;;;;;;;;14.90;99.90;;;;;;5092072;28;19954;-71
2022/10/11 12:46:18;;;;;;;;;;;14.90;99.90;;;;;;5092646;28;19912;-72
2022/10/11 12:48:50;;;;;;;;;;;14.90;99.90;;;;;;5091828;28;19915;-68
2022/10/11 12:51:39;;;;;;;;;;;14.90;99.90;;;;;;5124287;27;19977;-68
2022/10/11 12:54:23;;;;;;;;;;;14.80;99.90;;;;;;5095926;28;19913;-69
2022/10/11 12:57:05;;;;;;;;;;;14.90;99.90;;;;;;5095574;28;19960;-68
2022/10/11 12:59:32;;;;;;;;;;;14.80;99.90;;;;;;5095821;28;20405;-69
2022/10/11 13:01:59;;;;;;;;;;;14.80;99.90;;;;;;5095518;28;19909;-68
2022/10/11 13:04:30;;;;;;;;;;;14.80;99.90;;;;;;5095654;28;19912;-68
2022/10/11 13:07:03;;;;;;;;;;;14.80;99.90;;;;;;5095607;28;19944;-68
2022/10/11 13:09:30;;;;;;;;;;;14.80;99.90;;;;;;5095244;28;19967;-69
2022/10/11 13:12:00;;;;;;;;;;;14.80;99.90;;;;;;5095281;28;19908;-70
2022/10/11 13:14:26;;;;;;;;;;;14.70;99.90;;;;;;5095556;28;19908;-71
2022/10/11 13:16:59;;;;;;;;;;;14.70;99.90;;;;;;5095534;28;19912;-70
2022/10/11 13:19:26;;;;;;;;;;;14.70;99.90;;;;;;5095082;28;19947;-68
2022/10/11 13:21:54;;;;;;;;;;;14.70;99.90;;;;;;5095028;28;19912;-70
2022/10/11 13:24:22;;;;;;;;;;;14.60;99.90;;;;;;5095556;28;19971;-72
2022/10/11 13:26:49;;;;;;;;;;;14.60;99.90;;;;;;5095143;28;19912;-74
2022/10/11 13:29:19;;;;;;;;;;;14.60;99.90;;;;;;5094927;28;19916;-71
2022/10/11 13:31:46;;;;;;;;;;;14.70;99.90;;;;;;5094871;28;19920;-68
2022/10/11 13:34:13;;;;;;;;;;;14.60;99.90;;;;;;5095066;28;19912;-69
2022/10/11 13:36:40;;;;;;;;;;;14.60;99.90;;;;;;5095017;28;19912;-70
2022/10/11 13:39:23;;;;;;;;;;;14.60;99.90;;;;;;5094799;28;19951;-71
2022/10/11 13:41:50;;;;;;;;;;;14.60;99.90;;;;;;5094874;28;19908;-71
2022/10/11 13:44:16;;;;;;;;;;;14.60;99.90;;;;;;5127521;27;19916;-72
2022/10/11 13:46:43;;;;;;;;;;;14.60;99.90;;;;;;5094729;28;19915;-69
2022/10/11 13:49:22;;;;;;;;;;;14.50;99.90;;;;;;5094496;28;19919;-70
2022/10/11 13:51:59;;;;;;;;;;;14.60;99.90;;;;;;5094416;28;19936;-69
2022/10/11 13:54:47;;;;;;;;;;;14.50;99.90;;;;;;5095081;28;19994;-72
2022/10/11 13:57:14;;;;;;;;;;;14.50;99.90;;;;;;5104548;28;19912;-71
2022/10/11 13:59:43;;;;;;;;;;;14.50;99.90;;;;;;5104791;28;19908;-70
2022/10/11 14:02:17;;;;;;;;;;;14.50;99.90;;;;;;5094708;28;19919;-72
2022/10/11 14:04:44;;;;;;;;;;;14.50;99.90;;;;;;5094819;28;19909;-70
2022/10/11 14:07:30;;;;;;;;;;;14.50;99.90;;;;;;5094608;28;19908;-72
2022/10/11 14:09:57;;;;;;;;;;;14.60;99.90;;;;;;5093911;28;19924;-72
2022/10/11 14:12:27;;;;;;;;;;;14.60;99.90;;;;;;5094588;28;19912;-70
2022/10/11 14:14:53;;;;;;;;;;;14.50;99.90;;;;;;5094578;28;20012;-69
2022/10/11 14:17:23;;;;;;;;;;;14.50;99.90;;;;;;5094209;28;19912;-69
2022/10/11 14:20:08;;;;;;;;;;;14.60;99.90;;;;;;5094638;28;20627;-67
2022/10/11 14:22:35;;;;;;;;;;;14.50;99.90;;;;;;5097146;28;19909;-71
2022/10/11 14:25:02;;;;;;;;;;;14.60;99.90;;;;;;5097987;28;19908;-69
2022/10/11 14:27:29;;;;;;;;;;;14.60;99.90;;;;;;5134258;27;19920;-70
2022/10/11 14:29:56;;;;;;;;;;;14.60;99.90;;;;;;5100704;28;19920;-73
2022/10/11 14:32:29;;;;;;;;;;;14.60;99.90;;;;;;5101354;28;19908;-71
2022/10/11 14:34:56;;;;;;;;;;;14.60;99.90;;;;;;5100703;28;19915;-72